sensor_id;sensor_type;location;lat;lon;timestamp;temperature;humidity
12434;DHT22;6281;49.038;8.372;2023-03-12T00:00:54;1.20;99.90
12434;DHT22;6281;49.038;8.372;2023-03-12T00:03:21;1.20;99.90
12434;DHT22;6281;49.038;8.372;2023-03-12T00:05:49;1.20;99.90
12434;DHT22;6281;49.038;8.372;2023-03-12T00:08:47;1.20;99.90
12434;DHT22;6281;49.038;8.372;2023-03-12T00:15:08;0.80;99.90
12434;DHT22;6281;49.038;8.372;2023-03-12T00:17:35;0.80;99.90
12434;DHT22;6281;49.038;8.372;2023-03-12T00:20:03;0.90;99.90
12434;DHT22;6281;49.038;8.372;2023-03-12T00:22:32;0.80;99.90
12434;DHT22;6281;49.038;8.372;2023-03-12T00:24:59;0.80;99.90
12434;DHT22;6281;49.038;8.372;2023-03-12T00:27:27;0.80;99.90
12434;DHT22;6281;49.038;8.372;2023-03-12T00:29:54;0.70;99.90
12434;DHT22;6281;49.038;8.372;2023-03-12T00:32:21;0.70;99.90
12434;DHT22;6281;49.038;8.372;2023-03-12T00:34:50;0.70;99.90
12434;DHT22;6281;49.038;8.372;2023-03-12T00:37:17;0.80;99.90
12434;DHT22;6281;49.038;8.372;2023-03-12T00:39:46;0.80;99.90
12434;DHT22;6281;49.038;8.372;2023-03-12T00:42:13;0.60;99.90
12434;DHT22;6281;49.038;8.372;2023-03-12T00:44:40;0.90;99.90
12434;DHT22;6281;49.038;8.372;2023-03-12T00:47:08;0.90;99.90
12434;DHT22;6281;49.038;8.372;2023-03-12T00:49:35;1.00;99.90
12434;DHT22;6281;49.038;8.372;2023-03-12T00:52:03;1.00;99.90
12434;DHT22;6281;49.038;8.372;2023-03-12T00:54:30;0.90;99.90
12434;DHT22;6281;49.038;8.372;2023-03-12T00:56:59;1.10;99.90
12434;DHT22;6281;49.038;8.372;2023-03-12T00:59:26;1.00;99.90
12434;DHT22;6281;49.038;8.372;2023-03-12T01:01:53;1.10;99.90
12434;DHT22;6281;49.038;8.372;2023-03-12T01:04:20;1.10;99.90
12434;DHT22;6281;49.038;8.372;2023-03-12T01:06:47;1.10;99.90
12434;DHT22;6281;49.038;8.372;2023-03-12T01:09:14;1.10;99.90
12434;DHT22;6281;49.038;8.372;2023-03-12T01:11:41;1.10;99.90
12434;DHT22;6281;49.038;8.372;2023-03-12T01:14:09;1.10;99.90
12434;DHT22;6281;49.038;8.372;2023-03-12T01:16:36;0.90;99.90
12434;DHT22;6281;49.038;8.372;2023-03-12T01:19:03;0.90;99.90
12434;DHT22;6281;49.038;8.372;2023-03-12T01:21:30;0.90;99.90
12434;DHT22;6281;49.038;8.372;2023-03-12T01:23:57;1.00;99.90
12434;DHT22;6281;49.038;8.372;2023-03-12T01:26:25;1.00;99.90
12434;DHT22;6281;49.038;8.372;2023-03-12T01:28:52;1.10;99.90
12434;DHT22;6281;49.038;8.372;2023-03-12T01:31:21;1.00;99.90
12434;DHT22;6281;49.038;8.372;2023-03-12T01:33:48;0.70;99.90
12434;DHT22;6281;49.038;8.372;2023-03-12T01:36:17;0.40;99.90
12434;DHT22;6281;49.038;8.372;2023-03-12T01:38:44;0.20;99.90
12434;DHT22;6281;49.038;8.372;2023-03-12T01:41:12;0.00;99.90
12434;DHT22;6281;49.038;8.372;2023-03-12T01:43:39;0.50;99.90
12434;DHT22;6281;49.038;8.372;2023-03-12T01:46:29;0.80;99.90
12434;DHT22;6281;49.038;8.372;2023-03-12T01:49:00;0.90;99.90
12434;DHT22;6281;49.038;8.372;2023-03-12T01:51:31;0.90;99.90
12434;DHT22;6281;49.038;8.372;2023-03-12T01:54:01;0.80;99.90
12434;DHT22;6281;49.038;8.372;2023-03-12T01:56:32;0.80;99.90
12434;DHT22;6281;49.038;8.372;2023-03-12T01:59:02;0.60;99.90
12434;DHT22;6281;49.038;8.372;2023-03-12T02:01:33;0.60;99.90
12434;DHT22;6281;49.038;8.372;2023-03-12T02:04:00;0.60;99.90
12434;DHT22;6281;49.038;8.372;2023-03-12T02:06:33;0.60;99.90
12434;DHT22;6281;49.038;8.372;2023-03-12T02:09:05;0.60;99.90
12434;DHT22;6281;49.038;8.372;2023-03-12T02:11:32;0.70;99.90
12434;DHT22;6281;49.038;8.372;2023-03-12T02:13:59;0.70;99.90
12434;DHT22;6281;49.038;8.372;2023-03-12T02:16:26;0.70;99.90
12434;DHT22;6281;49.038;8.372;2023-03-12T02:18:56;0.70;99.90
12434;DHT22;6281;49.038;8.372;2023-03-12T02:21:28;0.60;99.90
12434;DHT22;6281;49.038;8.372;2023-03-12T02:24:03;0.70;99.90
12434;DHT22;6281;49.038;8.372;2023-03-12T02:26:34;0.80;99.90
12434;DHT22;6281;49.038;8.372;2023-03-12T02:29:02;0.80;99.90
12434;DHT22;6281;49.038;8.372;2023-03-12T02:31:34;0.90;99.90
12434;DHT22;6281;49.038;8.372;2023-03-12T02:34:03;0.80;99.90
12434;DHT22;6281;49.038;8.372;2023-03-12T02:36:30;0.80;99.90
12434;DHT22;6281;49.038;8.372;2023-03-12T02:38:57;0.70;99.90
12434;DHT22;6281;49.038;8.372;2023-03-12T02:41:26;0.70;99.90
12434;DHT22;6281;49.038;8.372;2023-03-12T02:44:00;0.70;99.90
12434;DHT22;6281;49.038;8.372;2023-03-12T02:46:29;0.60;99.90
12434;DHT22;6281;49.038;8.372;2023-03-12T02:48:58;0.70;99.90
12434;DHT22;6281;49.038;8.372;2023-03-12T02:51:25;0.70;99.90
12434;DHT22;6281;49.038;8.372;2023-03-12T02:53:52;0.90;99.90
12434;DHT22;6281;49.038;8.372;2023-03-12T02:56:20;1.00;99.90
12434;DHT22;6281;49.038;8.372;2023-03-12T02:58:48;1.00;99.90
12434;DHT22;6281;49.038;8.372;2023-03-12T03:01:17;1.10;99.90
12434;DHT22;6281;49.038;8.372;2023-03-12T03:03:45;1.10;99.90
12434;DHT22;6281;49.038;8.372;2023-03-12T03:06:12;1.10;99.90
12434;DHT22;6281;49.038;8.372;2023-03-12T03:08:39;1.30;99.90
12434;DHT22;6281;49.038;8.372;2023-03-12T03:11:06;1.10;99.90
12434;DHT22;6281;49.038;8.372;2023-03-12T03:13:34;1.10;99.90
12434;DHT22;6281;49.038;8.372;2023-03-12T03:16:01;1.00;99.90
12434;DHT22;6281;49.038;8.372;2023-03-12T03:18:30;1.00;99.90
12434;DHT22;6281;49.038;8.372;2023-03-12T03:20:59;1.10;99.90
12434;DHT22;6281;49.038;8.372;2023-03-12T03:23:26;1.10;99.90
12434;DHT22;6281;49.038;8.372;2023-03-12T03:25:53;1.10;99.90
12434;DHT22;6281;49.038;8.372;2023-03-12T03:28:22;1.20;99.90
12434;DHT22;6281;49.038;8.372;2023-03-12T03:30:51;1.10;99.90
12434;DHT22;6281;49.038;8.372;2023-03-12T03:33:18;1.00;99.90
12434;DHT22;6281;49.038;8.372;2023-03-12T03:35:46;1.10;99.90
12434;DHT22;6281;49.038;8.372;2023-03-12T03:38:13;1.10;99.90
12434;DHT22;6281;49.038;8.372;2023-03-12T03:40:40;1.20;99.90
12434;DHT22;6281;49.038;8.372;2023-03-12T03:43:08;1.30;99.90
12434;DHT22;6281;49.038;8.372;2023-03-12T03:45:35;1.30;99.90
12434;DHT22;6281;49.038;8.372;2023-03-12T03:48:02;1.10;99.90
12434;DHT22;6281;49.038;8.372;2023-03-12T03:50:29;1.30;99.90
12434;DHT22;6281;49.038;8.372;2023-03-12T03:52:57;1.20;99.90
12434;DHT22;6281;49.038;8.372;2023-03-12T03:55:24;1.10;99.90
12434;DHT22;6281;49.038;8.372;2023-03-12T03:57:51;1.10;99.90
12434;DHT22;6281;49.038;8.372;2023-03-12T04:00:18;1.20;99.90
12434;DHT22;6281;49.038;8.372;2023-03-12T04:02:46;1.30;99.90
12434;DHT22;6281;49.038;8.372;2023-03-12T04:05:13;1.30;99.90
12434;DHT22;6281;49.038;8.372;2023-03-12T04:07:43;1.20;99.90
12434;DHT22;6281;49.038;8.372;2023-03-12T04:10:13;1.30;99.90
12434;DHT22;6281;49.038;8.372;2023-03-12T04:12:40;1.30;99.90
12434;DHT22;6281;49.038;8.372;2023-03-12T04:15:08;1.60;99.90
12434;DHT22;6281;49.038;8.372;2023-03-12T04:17:35;1.60;99.90
12434;DHT22;6281;49.038;8.372;2023-03-12T04:20:02;1.50;99.90
12434;DHT22;6281;49.038;8.372;2023-03-12T04:22:31;1.40;99.90
12434;DHT22;6281;49.038;8.372;2023-03-12T04:24:58;1.50;99.90
12434;DHT22;6281;49.038;8.372;2023-03-12T04:27:27;1.60;99.90
12434;DHT22;6281;49.038;8.372;2023-03-12T04:29:54;1.70;99.90
12434;DHT22;6281;49.038;8.372;2023-03-12T04:32:21;1.70;99.90
12434;DHT22;6281;49.038;8.372;2023-03-12T04:34:47;1.70;99.90
12434;DHT22;6281;49.038;8.372;2023-03-12T04:37:14;1.80;99.90
12434;DHT22;6281;49.038;8.372;2023-03-12T04:39:42;1.70;99.90
12434;DHT22;6281;49.038;8.372;2023-03-12T04:42:09;1.60;99.90
12434;DHT22;6281;49.038;8.372;2023-03-12T04:44:38;1.70;99.90
12434;DHT22;6281;49.038;8.372;2023-03-12T04:47:06;1.90;99.90
12434;DHT22;6281;49.038;8.372;2023-03-12T04:49:33;1.90;99.90
12434;DHT22;6281;49.038;8.372;2023-03-12T04:52:00;1.80;99.90
12434;DHT22;6281;49.038;8.372;2023-03-12T04:54:27;1.80;99.90
12434;DHT22;6281;49.038;8.372;2023-03-12T04:56:56;2.00;99.90
12434;DHT22;6281;49.038;8.372;2023-03-12T04:59:35;2.00;99.90
12434;DHT22;6281;49.038;8.372;2023-03-12T05:02:03;2.20;99.90
12434;DHT22;6281;49.038;8.372;2023-03-12T05:04:30;2.00;99.90
12434;DHT22;6281;49.038;8.372;2023-03-12T05:06:57;2.00;99.90
12434;DHT22;6281;49.038;8.372;2023-03-12T05:09:24;2.00;99.90
12434;DHT22;6281;49.038;8.372;2023-03-12T05:11:51;1.90;99.90
12434;DHT22;6281;49.038;8.372;2023-03-12T05:14:18;1.80;99.90
12434;DHT22;6281;49.038;8.372;2023-03-12T05:16:45;1.80;99.90
12434;DHT22;6281;49.038;8.372;2023-03-12T05:19:14;1.90;99.90
12434;DHT22;6281;49.038;8.372;2023-03-12T05:21:41;1.90;99.90
12434;DHT22;6281;49.038;8.372;2023-03-12T05:24:08;1.80;99.90
12434;DHT22;6281;49.038;8.372;2023-03-12T05:26:35;1.70;99.90
12434;DHT22;6281;49.038;8.372;2023-03-12T05:29:03;1.70;99.90
12434;DHT22;6281;49.038;8.372;2023-03-12T05:31:31;1.80;99.90
12434;DHT22;6281;49.038;8.372;2023-03-12T05:33:59;2.00;99.90
12434;DHT22;6281;49.038;8.372;2023-03-12T05:36:28;2.00;99.90
12434;DHT22;6281;49.038;8.372;2023-03-12T05:38:55;2.10;99.90
12434;DHT22;6281;49.038;8.372;2023-03-12T05:41:24;2.10;99.90
12434;DHT22;6281;49.038;8.372;2023-03-12T05:43:51;2.10;99.90
12434;DHT22;6281;49.038;8.372;2023-03-12T05:46:19;2.10;99.90
12434;DHT22;6281;49.038;8.372;2023-03-12T05:48:46;2.10;99.90
12434;DHT22;6281;49.038;8.372;2023-03-12T05:51:13;1.90;99.90
12434;DHT22;6281;49.038;8.372;2023-03-12T05:53:42;2.00;99.90
12434;DHT22;6281;49.038;8.372;2023-03-12T05:56:11;2.00;99.90
12434;DHT22;6281;49.038;8.372;2023-03-12T05:58:39;2.20;99.90
12434;DHT22;6281;49.038;8.372;2023-03-12T06:01:11;2.30;99.90
12434;DHT22;6281;49.038;8.372;2023-03-12T06:03:38;2.30;99.90
12434;DHT22;6281;49.038;8.372;2023-03-12T06:06:07;2.30;99.90
12434;DHT22;6281;49.038;8.372;2023-03-12T06:08:34;2.20;99.90
12434;DHT22;6281;49.038;8.372;2023-03-12T06:11:02;2.20;99.90
12434;DHT22;6281;49.038;8.372;2023-03-12T06:13:29;2.30;99.90
12434;DHT22;6281;49.038;8.372;2023-03-12T06:16:00;2.30;99.90
12434;DHT22;6281;49.038;8.372;2023-03-12T06:18:29;2.40;99.90
12434;DHT22;6281;49.038;8.372;2023-03-12T06:21:05;2.40;99.90
12434;DHT22;6281;49.038;8.372;2023-03-12T06:23:32;2.50;99.90
12434;DHT22;6281;49.038;8.372;2023-03-12T06:25:59;2.50;99.90
12434;DHT22;6281;49.038;8.372;2023-03-12T06:28:27;2.60;99.90
12434;DHT22;6281;49.038;8.372;2023-03-12T06:30:55;2.70;99.90
12434;DHT22;6281;49.038;8.372;2023-03-12T06:33:22;2.70;99.90
12434;DHT22;6281;49.038;8.372;2023-03-12T06:35:52;2.50;99.90
12434;DHT22;6281;49.038;8.372;2023-03-12T06:38:19;2.40;99.90
12434;DHT22;6281;49.038;8.372;2023-03-12T06:40:53;2.40;99.90
12434;DHT22;6281;49.038;8.372;2023-03-12T06:43:20;2.70;99.90
12434;DHT22;6281;49.038;8.372;2023-03-12T06:45:48;2.90;99.90
12434;DHT22;6281;49.038;8.372;2023-03-12T06:48:15;2.90;99.90
12434;DHT22;6281;49.038;8.372;2023-03-12T06:50:42;2.90;99.90
12434;DHT22;6281;49.038;8.372;2023-03-12T06:53:09;2.80;99.90
12434;DHT22;6281;49.038;8.372;2023-03-12T06:55:36;2.70;99.90
12434;DHT22;6281;49.038;8.372;2023-03-12T06:58:03;2.70;99.90
12434;DHT22;6281;49.038;8.372;2023-03-12T07:00:31;2.80;99.90
12434;DHT22;6281;49.038;8.372;2023-03-12T07:03:00;2.80;99.90
12434;DHT22;6281;49.038;8.372;2023-03-12T07:05:27;2.90;99.90
12434;DHT22;6281;49.038;8.372;2023-03-12T07:10:21;2.90;99.90
12434;DHT22;6281;49.038;8.372;2023-03-12T07:12:48;3.00;99.90
12434;DHT22;6281;49.038;8.372;2023-03-12T07:15:15;2.80;99.90
12434;DHT22;6281;49.038;8.372;2023-03-12T07:17:42;2.90;99.90
12434;DHT22;6281;49.038;8.372;2023-03-12T07:20:11;2.90;99.90
12434;DHT22;6281;49.038;8.372;2023-03-12T07:22:38;2.90;99.90
12434;DHT22;6281;49.038;8.372;2023-03-12T07:25:05;3.00;99.90
12434;DHT22;6281;49.038;8.372;2023-03-12T07:27:32;3.00;99.90
12434;DHT22;6281;49.038;8.372;2023-03-12T07:29:59;2.90;99.90
12434;DHT22;6281;49.038;8.372;2023-03-12T07:32:26;2.70;99.90
12434;DHT22;6281;49.038;8.372;2023-03-12T07:34:53;2.60;99.90
12434;DHT22;6281;49.038;8.372;2023-03-12T07:37:21;2.40;99.90
12434;DHT22;6281;49.038;8.372;2023-03-12T07:39:48;2.30;99.90
12434;DHT22;6281;49.038;8.372;2023-03-12T07:42:17;2.70;99.90
12434;DHT22;6281;49.038;8.372;2023-03-12T07:44:44;2.80;99.90
12434;DHT22;6281;49.038;8.372;2023-03-12T07:47:11;2.80;99.90
12434;DHT22;6281;49.038;8.372;2023-03-12T07:49:37;2.80;99.90
12434;DHT22;6281;49.038;8.372;2023-03-12T07:52:06;2.90;99.90
12434;DHT22;6281;49.038;8.372;2023-03-12T07:54:36;2.70;99.90
12434;DHT22;6281;49.038;8.372;2023-03-12T07:57:03;2.80;99.90
12434;DHT22;6281;49.038;8.372;2023-03-12T07:59:30;2.70;99.90
12434;DHT22;6281;49.038;8.372;2023-03-12T08:01:57;2.70;99.90
12434;DHT22;6281;49.038;8.372;2023-03-12T08:04:24;2.70;99.90
12434;DHT22;6281;49.038;8.372;2023-03-12T08:06:51;2.60;99.90
12434;DHT22;6281;49.038;8.372;2023-03-12T08:09:18;2.70;99.90
12434;DHT22;6281;49.038;8.372;2023-03-12T08:11:46;2.90;99.90
12434;DHT22;6281;49.038;8.372;2023-03-12T08:14:13;2.90;99.90
12434;DHT22;6281;49.038;8.372;2023-03-12T08:16:40;3.00;99.90
12434;DHT22;6281;49.038;8.372;2023-03-12T08:19:07;3.10;99.90
12434;DHT22;6281;49.038;8.372;2023-03-12T08:21:34;3.00;99.90
12434;DHT22;6281;49.038;8.372;2023-03-12T08:24:01;3.20;99.90
12434;DHT22;6281;49.038;8.372;2023-03-12T08:26:28;3.00;99.90
12434;DHT22;6281;49.038;8.372;2023-03-12T08:28:56;3.00;99.90
12434;DHT22;6281;49.038;8.372;2023-03-12T08:31:24;2.90;99.90
12434;DHT22;6281;49.038;8.372;2023-03-12T08:33:51;3.00;99.90
12434;DHT22;6281;49.038;8.372;2023-03-12T08:36:18;3.00;99.90
12434;DHT22;6281;49.038;8.372;2023-03-12T08:38:45;2.90;99.90
12434;DHT22;6281;49.038;8.372;2023-03-12T08:41:12;2.80;99.90
12434;DHT22;6281;49.038;8.372;2023-03-12T08:43:39;2.90;99.90
12434;DHT22;6281;49.038;8.372;2023-03-12T08:46:07;3.00;99.90
12434;DHT22;6281;49.038;8.372;2023-03-12T08:48:35;3.20;99.90
12434;DHT22;6281;49.038;8.372;2023-03-12T08:51:02;3.10;99.90
12434;DHT22;6281;49.038;8.372;2023-03-12T08:53:31;2.60;99.90
12434;DHT22;6281;49.038;8.372;2023-03-12T08:55:58;2.80;99.90
12434;DHT22;6281;49.038;8.372;2023-03-12T08:58:26;3.10;99.90
12434;DHT22;6281;49.038;8.372;2023-03-12T09:00:54;3.40;99.90
12434;DHT22;6281;49.038;8.372;2023-03-12T09:03:23;2.80;99.90
12434;DHT22;6281;49.038;8.372;2023-03-12T09:06:01;2.90;99.90
12434;DHT22;6281;49.038;8.372;2023-03-12T09:08:28;3.20;99.90
12434;DHT22;6281;49.038;8.372;2023-03-12T09:10:58;3.00;99.90
12434;DHT22;6281;49.038;8.372;2023-03-12T09:13:26;2.80;99.90
12434;DHT22;6281;49.038;8.372;2023-03-12T09:15:58;3.10;99.90
12434;DHT22;6281;49.038;8.372;2023-03-12T09:18:27;3.30;99.90
12434;DHT22;6281;49.038;8.372;2023-03-12T09:20:55;2.80;99.90
12434;DHT22;6281;49.038;8.372;2023-03-12T09:23:23;3.00;99.90
12434;DHT22;6281;49.038;8.372;2023-03-12T09:25:50;3.20;99.90
12434;DHT22;6281;49.038;8.372;2023-03-12T09:28:17;3.20;99.90
12434;DHT22;6281;49.038;8.372;2023-03-12T09:30:45;3.50;99.90
12434;DHT22;6281;49.038;8.372;2023-03-12T09:33:12;3.30;99.90
12434;DHT22;6281;49.038;8.372;2023-03-12T09:35:41;3.20;99.90
12434;DHT22;6281;49.038;8.372;2023-03-12T09:38:11;3.70;99.90
12434;DHT22;6281;49.038;8.372;2023-03-12T09:40:39;3.40;99.90
12434;DHT22;6281;49.038;8.372;2023-03-12T09:43:15;3.20;99.90
12434;DHT22;6281;49.038;8.372;2023-03-12T09:45:45;3.60;99.90
12434;DHT22;6281;49.038;8.372;2023-03-12T09:48:15;3.70;99.90
12434;DHT22;6281;49.038;8.372;2023-03-12T09:50:46;3.90;99.90
12434;DHT22;6281;49.038;8.372;2023-03-12T09:53:19;3.80;99.90
12434;DHT22;6281;49.038;8.372;2023-03-12T09:55:50;3.70;99.90
12434;DHT22;6281;49.038;8.372;2023-03-12T09:58:24;3.80;99.90
12434;DHT22;6281;49.038;8.372;2023-03-12T10:00:54;4.00;99.90
12434;DHT22;6281;49.038;8.372;2023-03-12T10:03:43;4.20;99.90
12434;DHT22;6281;49.038;8.372;2023-03-12T10:06:19;4.30;99.90
12434;DHT22;6281;49.038;8.372;2023-03-12T10:08:55;4.30;99.90
12434;DHT22;6281;49.038;8.372;2023-03-12T10:11:35;4.40;99.90
12434;DHT22;6281;49.038;8.372;2023-03-12T10:14:18;4.60;99.90
12434;DHT22;6281;49.038;8.372;2023-03-12T10:17:07;4.70;99.90
12434;DHT22;6281;49.038;8.372;2023-03-12T10:19:58;4.90;99.90
12434;DHT22;6281;49.038;8.372;2023-03-12T10:22:43;4.80;99.90
12434;DHT22;6281;49.038;8.372;2023-03-12T10:25:17;5.10;99.90
12434;DHT22;6281;49.038;8.372;2023-03-12T10:27:49;5.40;99.90
12434;DHT22;6281;49.038;8.372;2023-03-12T10:30:17;5.00;99.90
12434;DHT22;6281;49.038;8.372;2023-03-12T10:32:48;5.50;99.90
12434;DHT22;6281;49.038;8.372;2023-03-12T10:35:18;6.20;99.90
12434;DHT22;6281;49.038;8.372;2023-03-12T10:37:48;5.80;99.90
12434;DHT22;6281;49.038;8.372;2023-03-12T10:40:18;6.10;99.90
12434;DHT22;6281;49.038;8.372;2023-03-12T10:42:45;6.90;99.90
12434;DHT22;6281;49.038;8.372;2023-03-12T10:45:20;7.20;99.90
12434;DHT22;6281;49.038;8.372;2023-03-12T10:47:54;7.30;99.90
12434;DHT22;6281;49.038;8.372;2023-03-12T10:50:24;6.90;99.90
12434;DHT22;6281;49.038;8.372;2023-03-12T10:53:12;7.00;99.90
12434;DHT22;6281;49.038;8.372;2023-03-12T10:55:40;7.20;99.90
12434;DHT22;6281;49.038;8.372;2023-03-12T10:58:21;7.60;99.90
12434;DHT22;6281;49.038;8.372;2023-03-12T11:00:58;9.00;99.90
12434;DHT22;6281;49.038;8.372;2023-03-12T11:03:26;9.50;99.90
12434;DHT22;6281;49.038;8.372;2023-03-12T11:05:55;10.00;99.90
12434;DHT22;6281;49.038;8.372;2023-03-12T11:08:25;10.30;99.90
12434;DHT22;6281;49.038;8.372;2023-03-12T11:10:53;9.00;99.90
12434;DHT22;6281;49.038;8.372;2023-03-12T11:13:29;8.60;99.90
12434;DHT22;6281;49.038;8.372;2023-03-12T11:15:58;8.70;99.90
12434;DHT22;6281;49.038;8.372;2023-03-12T11:18:31;9.40;99.90
12434;DHT22;6281;49.038;8.372;2023-03-12T11:21:13;10.30;99.90
12434;DHT22;6281;49.038;8.372;2023-03-12T11:23:44;11.50;99.90
12434;DHT22;6281;49.038;8.372;2023-03-12T11:26:16;10.40;99.90
12434;DHT22;6281;49.038;8.372;2023-03-12T11:28:46;10.30;99.90
12434;DHT22;6281;49.038;8.372;2023-03-12T11:31:19;11.70;99.90
12434;DHT22;6281;49.038;8.372;2023-03-12T11:33:47;15.00;99.90
12434;DHT22;6281;49.038;8.372;2023-03-12T11:36:30;15.50;99.90
12434;DHT22;6281;49.038;8.372;2023-03-12T11:39:03;13.30;99.90
12434;DHT22;6281;49.038;8.372;2023-03-12T11:41:43;15.90;99.90
12434;DHT22;6281;49.038;8.372;2023-03-12T11:44:20;13.80;99.90
12434;DHT22;6281;49.038;8.372;2023-03-12T11:46:59;14.20;99.90
12434;DHT22;6281;49.038;8.372;2023-03-12T11:49:39;14.10;99.90
12434;DHT22;6281;49.038;8.372;2023-03-12T11:52:15;14.90;99.90
12434;DHT22;6281;49.038;8.372;2023-03-12T11:57:55;13.60;99.90
12434;DHT22;6281;49.038;8.372;2023-03-12T12:00:30;12.50;99.90
12434;DHT22;6281;49.038;8.372;2023-03-12T12:03:19;11.60;99.90
12434;DHT22;6281;49.038;8.372;2023-03-12T12:05:57;11.00;99.90
12434;DHT22;6281;49.038;8.372;2023-03-12T12:08:37;11.10;99.90
12434;DHT22;6281;49.038;8.372;2023-03-12T12:11:13;10.90;99.90
12434;DHT22;6281;49.038;8.372;2023-03-12T12:13:50;10.70;99.90
12434;DHT22;6281;49.038;8.372;2023-03-12T12:16:48;11.40;99.90
12434;DHT22;6281;49.038;8.372;2023-03-12T12:19:25;12.20;99.90
12434;DHT22;6281;49.038;8.372;2023-03-12T12:22:05;12.30;99.90
12434;DHT22;6281;49.038;8.372;2023-03-12T12:24:41;12.20;99.90
12434;DHT22;6281;49.038;8.372;2023-03-12T12:27:18;11.60;99.90
12434;DHT22;6281;49.038;8.372;2023-03-12T12:30:00;11.70;99.90
12434;DHT22;6281;49.038;8.372;2023-03-12T12:32:38;11.70;99.90
12434;DHT22;6281;49.038;8.372;2023-03-12T12:35:19;11.80;99.90
12434;DHT22;6281;49.038;8.372;2023-03-12T12:37:53;11.70;99.90
12434;DHT22;6281;49.038;8.372;2023-03-12T12:40:26;11.80;99.90
12434;DHT22;6281;49.038;8.372;2023-03-12T12:43:01;11.60;99.90
12434;DHT22;6281;49.038;8.372;2023-03-12T12:45:30;11.90;99.90
12434;DHT22;6281;49.038;8.372;2023-03-12T12:48:00;12.00;99.90
12434;DHT22;6281;49.038;8.372;2023-03-12T12:50:32;12.30;99.90
12434;DHT22;6281;49.038;8.372;2023-03-12T12:53:07;12.90;99.90
12434;DHT22;6281;49.038;8.372;2023-03-12T12:55:44;13.50;99.90
12434;DHT22;6281;49.038;8.372;2023-03-12T12:58:18;13.30;99.90
12434;DHT22;6281;49.038;8.372;2023-03-12T13:00:49;13.80;99.90
12434;DHT22;6281;49.038;8.372;2023-03-12T13:03:18;13.40;99.90
12434;DHT22;6281;49.038;8.372;2023-03-12T13:05:53;12.90;99.90
12434;DHT22;6281;49.038;8.372;2023-03-12T13:09:00;12.60;99.90
12434;DHT22;6281;49.038;8.372;2023-03-12T13:11:39;12.50;99.90
12434;DHT22;6281;49.038;8.372;2023-03-12T13:14:37;12.70;99.90
12434;DHT22;6281;49.038;8.372;2023-03-12T13:17:07;12.60;99.90
12434;DHT22;6281;49.038;8.372;2023-03-12T13:19:45;12.50;99.90
12434;DHT22;6281;49.038;8.372;2023-03-12T13:22:19;12.30;99.90
12434;DHT22;6281;49.038;8.372;2023-03-12T13:24:53;12.60;99.90
12434;DHT22;6281;49.038;8.372;2023-03-12T13:27:24;12.60;99.90
12434;DHT22;6281;49.038;8.372;2023-03-12T13:29:55;12.50;99.90
12434;DHT22;6281;49.038;8.372;2023-03-12T13:33:05;13.00;99.90
12434;DHT22;6281;49.038;8.372;2023-03-12T13:35:37;13.70;99.90
12434;DHT22;6281;49.038;8.372;2023-03-12T13:38:06;13.60;99.90
12434;DHT22;6281;49.038;8.372;2023-03-12T13:40:56;13.70;99.90
12434;DHT22;6281;49.038;8.372;2023-03-12T13:43:48;13.20;99.90
12434;DHT22;6281;49.038;8.372;2023-03-12T13:46:41;13.40;99.90
12434;DHT22;6281;49.038;8.372;2023-03-12T13:49:13;14.10;99.90
12434;DHT22;6281;49.038;8.372;2023-03-12T13:52:00;13.30;99.90
12434;DHT22;6281;49.038;8.372;2023-03-12T13:54:32;13.50;99.90
12434;DHT22;6281;49.038;8.372;2023-03-12T13:57:10;13.70;99.90
12434;DHT22;6281;49.038;8.372;2023-03-12T13:59:42;13.90;99.90
12434;DHT22;6281;49.038;8.372;2023-03-12T14:02:21;13.70;99.90
12434;DHT22;6281;49.038;8.372;2023-03-12T14:04:49;14.10;99.90
12434;DHT22;6281;49.038;8.372;2023-03-12T14:10:18;13.40;99.90
12434;DHT22;6281;49.038;8.372;2023-03-12T14:12:53;13.80;99.90
12434;DHT22;6281;49.038;8.372;2023-03-12T14:15:28;14.20;99.90
12434;DHT22;6281;49.038;8.372;2023-03-12T14:17:59;14.50;99.90
12434;DHT22;6281;49.038;8.372;2023-03-12T14:20:27;14.00;99.90
12434;DHT22;6281;49.038;8.372;2023-03-12T14:22:59;13.70;99.90
12434;DHT22;6281;49.038;8.372;2023-03-12T14:25:33;13.70;99.90
12434;DHT22;6281;49.038;8.372;2023-03-12T14:28:01;13.40;99.90
12434;DHT22;6281;49.038;8.372;2023-03-12T14:30:38;13.40;99.90
12434;DHT22;6281;49.038;8.372;2023-03-12T14:33:12;13.30;99.90
12434;DHT22;6281;49.038;8.372;2023-03-12T14:35:43;13.00;99.90
12434;DHT22;6281;49.038;8.372;2023-03-12T14:38:15;12.90;99.90
12434;DHT22;6281;49.038;8.372;2023-03-12T14:40:47;13.00;99.90
12434;DHT22;6281;49.038;8.372;2023-03-12T14:43:24;12.90;99.90
12434;DHT22;6281;49.038;8.372;2023-03-12T14:45:54;12.90;99.90
12434;DHT22;6281;49.038;8.372;2023-03-12T14:48:26;12.80;99.90
12434;DHT22;6281;49.038;8.372;2023-03-12T14:50:55;12.80;99.90
12434;DHT22;6281;49.038;8.372;2023-03-12T14:53:25;13.00;99.90
12434;DHT22;6281;49.038;8.372;2023-03-12T14:56:04;13.10;99.90
12434;DHT22;6281;49.038;8.372;2023-03-12T14:58:32;13.10;99.90
12434;DHT22;6281;49.038;8.372;2023-03-12T15:01:02;13.00;99.90
12434;DHT22;6281;49.038;8.372;2023-03-12T15:03:35;13.10;99.90
12434;DHT22;6281;49.038;8.372;2023-03-12T15:06:13;13.20;99.90
12434;DHT22;6281;49.038;8.372;2023-03-12T15:08:42;13.10;99.90
12434;DHT22;6281;49.038;8.372;2023-03-12T15:11:09;13.10;99.90
12434;DHT22;6281;49.038;8.372;2023-03-12T15:13:37;13.10;99.90
12434;DHT22;6281;49.038;8.372;2023-03-12T15:16:05;13.00;99.90
12434;DHT22;6281;49.038;8.372;2023-03-12T15:18:35;13.00;99.90
12434;DHT22;6281;49.038;8.372;2023-03-12T15:21:03;13.00;99.90
12434;DHT22;6281;49.038;8.372;2023-03-12T15:23:32;13.10;99.90
12434;DHT22;6281;49.038;8.372;2023-03-12T15:26:08;13.00;99.90
12434;DHT22;6281;49.038;8.372;2023-03-12T15:28:36;13.00;99.90
12434;DHT22;6281;49.038;8.372;2023-03-12T15:31:12;13.00;99.90
12434;DHT22;6281;49.038;8.372;2023-03-12T15:33:57;13.00;99.90
12434;DHT22;6281;49.038;8.372;2023-03-12T15:36:27;12.90;99.90
12434;DHT22;6281;49.038;8.372;2023-03-12T15:38:56;12.90;99.90
12434;DHT22;6281;49.038;8.372;2023-03-12T15:41:27;12.90;99.90
12434;DHT22;6281;49.038;8.372;2023-03-12T15:44:00;12.80;99.90
12434;DHT22;6281;49.038;8.372;2023-03-12T15:46:27;12.80;99.90
12434;DHT22;6281;49.038;8.372;2023-03-12T15:48:57;12.80;99.90
12434;DHT22;6281;49.038;8.372;2023-03-12T15:51:28;12.90;99.90
12434;DHT22;6281;49.038;8.372;2023-03-12T15:53:59;12.90;99.90
12434;DHT22;6281;49.038;8.372;2023-03-12T15:56:27;12.90;99.90
12434;DHT22;6281;49.038;8.372;2023-03-12T15:59:04;12.90;99.90
12434;DHT22;6281;49.038;8.372;2023-03-12T16:01:50;12.90;99.90
12434;DHT22;6281;49.038;8.372;2023-03-12T16:04:20;12.80;99.90
12434;DHT22;6281;49.038;8.372;2023-03-12T16:06:48;12.80;99.90
12434;DHT22;6281;49.038;8.372;2023-03-12T16:09:17;12.80;99.90
12434;DHT22;6281;49.038;8.372;2023-03-12T16:11:46;12.80;99.90
12434;DHT22;6281;49.038;8.372;2023-03-12T16:14:21;12.80;99.90
12434;DHT22;6281;49.038;8.372;2023-03-12T16:16:50;12.70;99.90
12434;DHT22;6281;49.038;8.372;2023-03-12T16:19:20;12.80;99.90
12434;DHT22;6281;49.038;8.372;2023-03-12T16:21:48;12.80;99.90
12434;DHT22;6281;49.038;8.372;2023-03-12T16:24:16;12.70;99.90
12434;DHT22;6281;49.038;8.372;2023-03-12T16:30:09;12.80;99.90
12434;DHT22;6281;49.038;8.372;2023-03-12T16:32:37;12.70;99.90
12434;DHT22;6281;49.038;8.372;2023-03-12T16:35:11;12.80;99.90